createdAt,value
2022-11-25T00:01:41.591Z,100.00
2022-11-25T00:04:09.581Z,100.00
2022-11-25T00:06:37.639Z,100.00
2022-11-25T00:09:07.727Z,100.00
2022-11-25T00:11:36.113Z,100.00
2022-11-25T00:14:04.079Z,100.00
2022-11-25T00:16:32.113Z,100.00
2022-11-25T00:19:00.139Z,100.00
2022-11-25T00:21:29.179Z,100.00
2022-11-25T00:23:57.958Z,100.00
2022-11-25T00:26:27.805Z,100.00
2022-11-25T00:28:57.679Z,100.00
2022-11-25T00:31:26.634Z,100.00
2022-11-25T00:33:54.652Z,100.00
2022-11-25T00:36:23.997Z,100.00
2022-11-25T00:38:54.290Z,100.00
2022-11-25T00:41:39.447Z,100.00
2022-11-25T00:44:27.285Z,100.00
2022-11-25T00:46:55.250Z,100.00
2022-11-25T00:49:23.323Z,100.00
2022-11-25T00:51:51.378Z,100.00
2022-11-25T00:54:19.519Z,100.00
2022-11-25T00:56:47.572Z,100.00
2022-11-25T00:59:16.960Z,100.00
2022-11-25T01:01:45.027Z,100.00
2022-11-25T01:04:13.092Z,100.00
2022-11-25T01:06:41.012Z,100.00
2022-11-25T01:09:09.085Z,100.00
2022-11-25T01:11:37.063Z,100.00
2022-11-25T01:14:05.006Z,100.00
2022-11-25T01:16:34.361Z,100.00
2022-11-25T01:19:02.473Z,100.00
2022-11-25T01:21:31.458Z,100.00
2022-11-25T01:24:00.340Z,100.00
2022-11-25T01:26:28.536Z,100.00
2022-11-25T01:28:57.292Z,100.00
2022-11-25T01:31:26.361Z,100.00
2022-11-25T01:33:56.883Z,100.00
2022-11-25T01:36:24.899Z,100.00
2022-11-25T01:38:53.582Z,100.00
2022-11-25T01:41:22.252Z,100.00
2022-11-25T01:44:11.074Z,100.00
2022-11-25T01:46:56.288Z,100.00
2022-11-25T01:49:30.043Z,100.00
2022-11-25T01:52:00.427Z,100.00
2022-11-25T01:54:29.525Z,100.00
2022-11-25T01:56:59.750Z,100.00
2022-11-25T01:59:27.807Z,100.00
2022-11-25T02:01:55.852Z,100.00
2022-11-25T02:04:24.183Z,100.00
2022-11-25T02:06:54.993Z,100.00
2022-11-25T02:09:23.185Z,100.00
2022-11-25T02:11:51.178Z,100.00
2022-11-25T02:14:19.345Z,100.00
2022-11-25T02:16:47.364Z,100.00
2022-11-25T02:19:18.111Z,100.00
2022-11-25T02:21:48.580Z,100.00
2022-11-25T02:24:19.821Z,100.00
2022-11-25T02:26:49.215Z,100.00
2022-11-25T02:29:17.181Z,100.00
2022-11-25T02:31:45.261Z,100.00
2022-11-25T02:34:13.254Z,100.00
2022-11-25T02:36:41.198Z,100.00
2022-11-25T02:39:09.163Z,100.00
2022-11-25T02:41:38.663Z,100.00
2022-11-25T02:44:07.971Z,100.00
2022-11-25T02:46:35.954Z,100.00
2022-11-25T02:49:11.393Z,100.00
2022-11-25T02:51:39.984Z,100.00
2022-11-25T02:54:07.996Z,100.00
2022-11-25T02:56:36.325Z,100.00
2022-11-25T02:59:04.488Z,100.00
2022-11-25T03:01:35.364Z,100.00
2022-11-25T03:04:03.568Z,100.00
2022-11-25T03:06:31.550Z,100.00
2022-11-25T03:08:59.543Z,100.00
2022-11-25T03:11:47.639Z,100.00
2022-11-25T03:14:15.550Z,100.00
2022-11-25T03:16:44.993Z,100.00
2022-11-25T03:19:13.001Z,100.00
2022-11-25T03:21:40.917Z,100.00
2022-11-25T03:24:08.980Z,100.00
2022-11-25T03:26:36.957Z,100.00
2022-11-25T03:29:04.934Z,100.00
2022-11-25T03:31:32.915Z,100.00
2022-11-25T03:34:02.257Z,100.00
2022-11-25T03:36:30.209Z,100.00
2022-11-25T03:38:58.194Z,100.00
2022-11-25T03:41:26.162Z,100.00
2022-11-25T03:43:54.155Z,100.00
2022-11-25T03:46:22.166Z,100.00
2022-11-25T03:48:50.231Z,100.00
2022-11-25T03:51:19.562Z,100.00
2022-11-25T03:53:47.529Z,100.00
2022-11-25T03:56:15.613Z,100.00
2022-11-25T03:58:43.562Z,100.00
2022-11-25T04:01:11.760Z,100.00
2022-11-25T04:03:39.780Z,100.00
2022-11-25T04:06:07.838Z,100.00
2022-11-25T04:08:37.208Z,100.00
2022-11-25T04:11:05.139Z,100.00
2022-11-25T04:13:32.114Z,100.00
2022-11-25T04:16:00.095Z,100.00
2022-11-25T04:18:28.042Z,100.00
2022-11-25T04:20:56.016Z,100.00
2022-11-25T04:23:23.966Z,100.00
2022-11-25T04:25:53.343Z,100.00
2022-11-25T04:28:21.332Z,100.00
2022-11-25T04:30:49.288Z,100.00
2022-11-25T04:33:17.372Z,100.00
2022-11-25T04:35:45.476Z,100.00
2022-11-25T04:38:13.488Z,100.00
2022-11-25T04:40:41.547Z,100.00
2022-11-25T04:43:10.976Z,100.00
2022-11-25T04:46:06.191Z,100.00
2022-11-25T04:48:26.880Z,100.00
2022-11-25T04:50:54.844Z,100.00
2022-11-25T04:53:22.787Z,100.00
2022-11-25T04:55:50.754Z,100.00
2022-11-25T04:58:40.078Z,100.00
2022-11-25T05:01:07.038Z,100.00
2022-11-25T05:03:34.993Z,100.00
2022-11-25T05:06:07.219Z,100.00
2022-11-25T05:08:35.214Z,100.00
2022-11-25T05:11:03.243Z,100.00
2022-11-25T05:13:32.676Z,100.00
2022-11-25T05:16:01.146Z,100.00
2022-11-25T05:18:29.182Z,100.00
2022-11-25T05:20:57.185Z,100.00
2022-11-25T05:23:25.238Z,100.00
2022-11-25T05:25:53.186Z,100.00
2022-11-25T05:28:21.309Z,100.00
2022-11-25T05:30:50.725Z,100.00
2022-11-25T05:33:18.722Z,100.00
2022-11-25T05:35:46.700Z,100.00
2022-11-25T05:38:14.686Z,100.00
2022-11-25T05:40:42.574Z,100.00
2022-11-25T05:43:10.544Z,100.00
2022-11-25T05:45:39.740Z,100.00
2022-11-25T05:48:09.258Z,100.00
2022-11-25T05:50:37.962Z,100.00
2022-11-25T05:53:05.952Z,100.00
2022-11-25T05:55:33.969Z,100.00
2022-11-25T05:58:03.168Z,100.00
2022-11-25T06:00:31.166Z,100.00
2022-11-25T06:02:59.306Z,100.00
2022-11-25T06:05:28.694Z,100.00
2022-11-25T06:07:56.701Z,100.00
2022-11-25T06:10:24.651Z,100.00
2022-11-25T06:12:53.748Z,100.00
2022-11-25T06:15:21.906Z,100.00
2022-11-25T06:17:49.852Z,100.00
2022-11-25T06:20:18.068Z,100.00
2022-11-25T06:22:47.531Z,100.00
2022-11-25T06:25:15.544Z,100.00
2022-11-25T06:28:11.259Z,100.00
2022-11-25T06:30:31.415Z,100.00
2022-11-25T06:32:59.376Z,100.00
2022-11-25T06:35:27.343Z,100.00
2022-11-25T06:37:56.692Z,100.00
2022-11-25T06:40:24.714Z,100.00
2022-11-25T06:42:52.800Z,100.00
2022-11-25T06:45:20.795Z,100.00
2022-11-25T06:47:48.808Z,100.00
2022-11-25T06:50:16.968Z,100.00
2022-11-25T06:52:44.933Z,100.00
2022-11-25T06:55:14.367Z,100.00
2022-11-25T06:57:42.324Z,100.00
2022-11-25T07:00:10.861Z,100.00
2022-11-25T07:02:44.066Z,100.00
2022-11-25T07:05:13.413Z,100.00
2022-11-25T07:07:41.382Z,100.00
2022-11-25T07:10:10.332Z,100.00
2022-11-25T07:12:39.924Z,100.00
2022-11-25T07:15:08.493Z,100.00
2022-11-25T07:17:36.565Z,100.00
2022-11-25T07:20:04.905Z,100.00
2022-11-25T07:22:32.839Z,100.00
2022-11-25T07:25:00.867Z,100.00
2022-11-25T07:27:28.841Z,100.00
2022-11-25T07:30:41.069Z,100.00
2022-11-25T07:32:46.135Z,100.00
2022-11-25T07:35:14.202Z,100.00
2022-11-25T07:37:42.296Z,100.00
2022-11-25T07:40:11.006Z,100.00
2022-11-25T07:42:38.951Z,100.00
2022-11-25T07:45:09.358Z,100.00
2022-11-25T07:47:37.339Z,100.00
2022-11-25T07:50:05.817Z,100.00
2022-11-25T07:52:33.868Z,100.00
2022-11-25T07:55:01.818Z,100.00
2022-11-25T07:57:30.240Z,100.00
2022-11-25T07:59:58.173Z,100.00
2022-11-25T08:02:27.572Z,100.00
2022-11-25T08:04:55.626Z,100.00
2022-11-25T08:07:23.671Z,100.00
2022-11-25T08:09:52.588Z,100.00
2022-11-25T08:12:20.580Z,100.00
2022-11-25T08:14:48.648Z,100.00
2022-11-25T08:17:16.570Z,100.00
2022-11-25T08:19:45.915Z,100.00
2022-11-25T08:22:14.005Z,100.00
2022-11-25T08:24:42.176Z,100.00
2022-11-25T08:27:10.117Z,100.00
2022-11-25T08:29:38.167Z,100.00
2022-11-25T08:32:11.771Z,100.00
2022-11-25T08:34:40.161Z,100.00
2022-11-25T08:37:09.675Z,100.00
2022-11-25T08:39:52.444Z,100.00
2022-11-25T08:42:21.031Z,100.00
2022-11-25T08:44:53.102Z,100.00
2022-11-25T08:47:21.075Z,100.00
2022-11-25T08:49:51.843Z,100.00
2022-11-25T08:52:21.220Z,98.18
2022-11-25T08:54:49.186Z,94.42
2022-11-25T08:57:17.247Z,92.92
2022-11-25T08:59:45.178Z,91.02
2022-11-25T09:02:14.412Z,90.20
2022-11-25T09:04:42.468Z,88.11
2022-11-25T09:07:10.546Z,84.97
2022-11-25T09:09:40.176Z,85.95
2022-11-25T09:12:08.359Z,85.47
2022-11-25T09:14:36.392Z,87.76
2022-11-25T09:17:05.132Z,85.95
2022-11-25T09:19:33.334Z,85.88
2022-11-25T09:22:01.380Z,86.63
2022-11-25T09:24:29.367Z,85.31
2022-11-25T09:26:58.671Z,81.95
2022-11-25T09:29:27.844Z,81.51
2022-11-25T09:31:55.838Z,82.14
2022-11-25T09:34:23.848Z,82.12
2022-11-25T09:36:51.828Z,83.97
2022-11-25T09:39:19.814Z,85.31
2022-11-25T09:42:16.199Z,84.40
2022-11-25T09:45:07.196Z,83.47
2022-11-25T09:47:42.316Z,84.89
2022-11-25T09:50:17.616Z,83.43
2022-11-25T09:52:49.697Z,84.28
2022-11-25T09:55:18.833Z,83.95
2022-11-25T09:57:59.688Z,82.47
2022-11-25T10:00:39.178Z,84.16
2022-11-25T10:03:08.588Z,83.99
2022-11-25T10:05:40.595Z,82.19
2022-11-25T10:08:11.290Z,86.88
2022-11-25T10:10:42.690Z,84.73
2022-11-25T10:13:15.491Z,84.77
2022-11-25T10:15:45.449Z,85.62
2022-11-25T10:18:16.626Z,84.68
2022-11-25T10:20:44.725Z,83.16
2022-11-25T10:23:13.942Z,81.39
2022-11-25T10:25:46.240Z,80.43
2022-11-25T10:28:18.989Z,79.31
2022-11-25T10:30:51.017Z,78.46
2022-11-25T10:33:20.951Z,76.42
2022-11-25T10:35:50.832Z,76.73
2022-11-25T10:38:21.791Z,76.37
2022-11-25T10:40:51.073Z,74.73
2022-11-25T10:43:20.863Z,73.52
2022-11-25T10:45:50.623Z,73.33
2022-11-25T10:48:24.005Z,74.02
2022-11-25T10:51:03.151Z,73.63
2022-11-25T10:53:31.486Z,73.57
2022-11-25T10:56:02.263Z,72.90
2022-11-25T10:58:33.138Z,73.19
2022-11-25T11:01:06.572Z,73.62
2022-11-25T11:03:34.666Z,74.94
2022-11-25T11:06:02.643Z,75.82
2022-11-25T11:08:37.676Z,75.88
2022-11-25T11:11:26.431Z,78.88
2022-11-25T11:14:01.778Z,79.82
2022-11-25T11:16:31.809Z,81.02
2022-11-25T11:19:00.019Z,82.54
2022-11-25T11:21:31.476Z,82.16
2022-11-25T11:23:59.957Z,81.85
2022-11-25T11:26:28.902Z,82.28
2022-11-25T11:29:11.127Z,82.07
2022-11-25T11:31:45.296Z,84.71
2022-11-25T11:34:28.826Z,84.53
2022-11-25T11:37:07.990Z,84.74
2022-11-25T11:39:52.856Z,82.42
2022-11-25T11:42:23.882Z,82.63
2022-11-25T11:45:01.147Z,83.21
2022-11-25T11:47:31.932Z,84.89
2022-11-25T11:50:18.534Z,85.15
2022-11-25T11:52:51.487Z,83.94
2022-11-25T11:55:29.217Z,85.89
2022-11-25T11:58:01.322Z,83.31
2022-11-25T12:00:33.281Z,85.04
2022-11-25T12:03:02.550Z,81.59
2022-11-25T12:05:31.454Z,82.28
2022-11-25T12:08:04.153Z,80.05
2022-11-25T12:10:33.940Z,81.06
2022-11-25T12:13:09.028Z,81.24
2022-11-25T12:15:45.038Z,80.59
2022-11-25T12:18:20.018Z,79.72
2022-11-25T12:20:50.590Z,80.99
2022-11-25T12:23:21.066Z,79.64
2022-11-25T12:25:49.284Z,81.06
2022-11-25T12:28:18.899Z,82.38
2022-11-25T12:30:58.305Z,83.45
2022-11-25T12:33:31.123Z,86.88
2022-11-25T12:36:01.144Z,88.01
2022-11-25T12:38:35.201Z,90.66
2022-11-25T12:41:06.064Z,92.84
2022-11-25T12:43:38.009Z,92.88
2022-11-25T12:46:14.857Z,94.51
2022-11-25T12:48:43.727Z,95.22
2022-11-25T12:51:18.063Z,96.11
2022-11-25T12:53:48.390Z,96.26
2022-11-25T12:56:18.364Z,98.49
2022-11-25T12:58:54.304Z,100.00
2022-11-25T13:01:45.535Z,100.00
2022-11-25T13:04:58.048Z,100.00
2022-11-25T13:07:32.300Z,100.00
2022-11-25T13:10:14.379Z,100.00
2022-11-25T13:12:47.505Z,100.00
2022-11-25T13:15:28.250Z,100.00
2022-11-25T13:18:00.575Z,100.00
2022-11-25T13:20:37.066Z,100.00
2022-11-25T13:23:09.010Z,100.00
2022-11-25T13:25:37.734Z,100.00
2022-11-25T13:28:06.162Z,100.00
2022-11-25T13:30:38.555Z,100.00
2022-11-25T13:33:38.922Z,100.00
2022-11-25T13:36:16.555Z,100.00
2022-11-25T13:39:01.095Z,100.00
2022-11-25T13:41:49.949Z,98.37
2022-11-25T13:44:23.208Z,97.87
2022-11-25T13:46:52.675Z,98.96
2022-11-25T13:49:26.029Z,98.91
2022-11-25T13:51:55.914Z,100.00
2022-11-25T13:54:26.953Z,100.00
2022-11-25T13:57:28.032Z,99.79
2022-11-25T13:59:57.949Z,98.25
2022-11-25T14:02:42.071Z,94.93
2022-11-25T14:05:57.517Z,93.48
2022-11-25T14:08:33.642Z,94.76
2022-11-25T14:11:14.509Z,94.95
2022-11-25T14:13:59.826Z,95.37
2022-11-25T14:16:40.557Z,95.87
2022-11-25T14:19:54.839Z,94.56
2022-11-25T14:22:41.416Z,95.96
2022-11-25T14:25:22.354Z,96.32
2022-11-25T14:27:52.998Z,95.26
2022-11-25T14:30:21.075Z,95.89
2022-11-25T14:32:53.412Z,97.24
2022-11-25T14:35:22.974Z,97.99
2022-11-25T14:37:51.812Z,97.35
2022-11-25T14:40:22.844Z,97.74
2022-11-25T14:42:53.124Z,98.33
2022-11-25T14:45:22.406Z,99.47
2022-11-25T14:47:50.394Z,100.00
2022-11-25T14:50:34.203Z,100.00
2022-11-25T14:53:07.217Z,100.00
2022-11-25T14:55:36.590Z,100.00
2022-11-25T14:58:04.509Z,100.00
2022-11-25T15:00:32.489Z,100.00
2022-11-25T15:03:01.129Z,100.00
2022-11-25T15:05:33.053Z,100.00
2022-11-25T15:08:02.490Z,100.00
2022-11-25T15:10:41.029Z,100.00
2022-11-25T15:13:14.503Z,100.00
2022-11-25T15:15:45.763Z,100.00
2022-11-25T15:18:17.473Z,100.00
2022-11-25T15:20:47.929Z,100.00
2022-11-25T15:23:16.216Z,100.00
2022-11-25T15:25:52.178Z,100.00
2022-11-25T15:28:20.147Z,100.00
2022-11-25T15:30:57.382Z,100.00
2022-11-25T15:33:25.640Z,100.00
2022-11-25T15:35:54.017Z,100.00
2022-11-25T15:38:36.209Z,100.00
2022-11-25T15:41:05.685Z,100.00
2022-11-25T15:43:33.618Z,100.00
2022-11-25T15:46:02.584Z,100.00
2022-11-25T15:48:32.027Z,100.00
2022-11-25T15:51:02.490Z,100.00
2022-11-25T15:53:33.360Z,100.00
2022-11-25T15:56:01.613Z,100.00
2022-11-25T15:58:30.925Z,100.00
2022-11-25T16:01:05.802Z,100.00
2022-11-25T16:03:34.086Z,100.00
2022-11-25T16:06:02.354Z,100.00
2022-11-25T16:08:35.139Z,100.00
2022-11-25T16:11:15.402Z,100.00
2022-11-25T16:13:44.737Z,100.00
2022-11-25T16:16:17.738Z,100.00
2022-11-25T16:18:59.670Z,100.00
2022-11-25T16:21:30.590Z,100.00
2022-11-25T16:24:00.297Z,100.00
2022-11-25T16:26:29.521Z,100.00
2022-11-25T16:29:00.123Z,100.00
2022-11-25T16:31:28.725Z,100.00
2022-11-25T16:33:57.049Z,100.00
2022-11-25T16:36:25.060Z,100.00
2022-11-25T16:38:53.367Z,100.00
2022-11-25T16:41:22.113Z,100.00
2022-11-25T16:43:50.122Z,100.00
2022-11-25T16:46:20.359Z,100.00
2022-11-25T16:48:48.364Z,100.00
2022-11-25T16:51:17.073Z,100.00
2022-11-25T16:53:45.115Z,100.00
2022-11-25T16:56:15.580Z,100.00
2022-11-25T16:58:43.958Z,100.00
2022-11-25T17:01:14.078Z,100.00
2022-11-25T17:03:43.575Z,100.00
2022-11-25T17:06:20.036Z,100.00
2022-11-25T17:08:49.733Z,100.00
2022-11-25T17:11:19.456Z,100.00
2022-11-25T17:13:50.482Z,100.00
2022-11-25T17:16:19.494Z,100.00
2022-11-25T17:18:49.047Z,100.00
2022-11-25T17:21:17.276Z,100.00
2022-11-25T17:23:45.497Z,100.00
2022-11-25T17:26:17.748Z,100.00
2022-11-25T17:28:46.223Z,100.00
2022-11-25T17:31:14.226Z,100.00
2022-11-25T17:33:46.136Z,100.00
2022-11-25T17:36:15.499Z,100.00
2022-11-25T17:38:43.445Z,100.00
2022-11-25T17:41:13.296Z,100.00
2022-11-25T17:43:41.277Z,100.00
2022-11-25T17:46:11.554Z,100.00
2022-11-25T17:48:42.274Z,100.00
2022-11-25T17:51:10.415Z,100.00
2022-11-25T17:53:39.978Z,100.00
2022-11-25T17:56:27.012Z,100.00
2022-11-25T17:58:54.964Z,100.00
2022-11-25T18:01:22.974Z,100.00
2022-11-25T18:03:53.069Z,100.00
2022-11-25T18:06:21.067Z,100.00
2022-11-25T18:08:50.626Z,100.00
2022-11-25T18:11:19.905Z,100.00
2022-11-25T18:13:47.865Z,100.00
2022-11-25T18:16:16.096Z,100.00
2022-11-25T18:18:44.115Z,100.00
2022-11-25T18:21:12.703Z,100.00
2022-11-25T18:23:40.691Z,100.00
2022-11-25T18:26:11.030Z,100.00
2022-11-25T18:28:38.946Z,100.00
2022-11-25T18:31:07.337Z,100.00
2022-11-25T18:33:35.755Z,100.00
2022-11-25T18:36:03.806Z,100.00
2022-11-25T18:38:31.780Z,100.00
2022-11-25T18:40:59.778Z,100.00
2022-11-25T18:43:29.147Z,100.00
2022-11-25T18:45:57.329Z,100.00
2022-11-25T18:48:26.421Z,100.00
2022-11-25T18:50:56.092Z,100.00
2022-11-25T18:53:24.247Z,100.00
2022-11-25T18:55:52.266Z,100.00
2022-11-25T18:58:20.829Z,100.00
2022-11-25T19:00:50.845Z,100.00
2022-11-25T19:03:20.075Z,100.00
2022-11-25T19:05:48.190Z,100.00
2022-11-25T19:08:16.155Z,100.00
2022-11-25T19:10:44.685Z,100.00
2022-11-25T19:13:15.228Z,100.00
2022-11-25T19:15:44.047Z,100.00
2022-11-25T19:18:16.117Z,100.00
2022-11-25T19:20:44.082Z,100.00
2022-11-25T19:23:18.702Z,100.00
2022-11-25T19:25:46.649Z,100.00
2022-11-25T19:28:14.807Z,100.00
2022-11-25T19:30:42.908Z,100.00
2022-11-25T19:33:14.612Z,100.00
2022-11-25T19:35:42.634Z,100.00
2022-11-25T19:38:21.327Z,100.00
2022-11-25T19:40:49.444Z,100.00
2022-11-25T19:43:17.437Z,100.00
2022-11-25T19:45:45.477Z,100.00
2022-11-25T19:48:16.703Z,100.00
2022-11-25T19:50:45.134Z,100.00
2022-11-25T19:53:16.753Z,100.00
2022-11-25T19:55:45.199Z,100.00
2022-11-25T19:58:13.172Z,100.00
2022-11-25T20:00:41.276Z,100.00
2022-11-25T20:03:12.694Z,100.00
2022-11-25T20:05:42.068Z,100.00
2022-11-25T20:08:12.198Z,100.00
2022-11-25T20:10:40.132Z,100.00
2022-11-25T20:13:08.109Z,100.00
2022-11-25T20:15:36.278Z,100.00
2022-11-25T20:18:04.744Z,100.00
2022-11-25T20:20:33.600Z,100.00
2022-11-25T20:23:04.165Z,100.00
2022-11-25T20:25:32.160Z,100.00
2022-11-25T20:28:00.158Z,100.00
2022-11-25T20:30:29.385Z,100.00
2022-11-25T20:32:57.386Z,100.00
2022-11-25T20:35:25.378Z,100.00
2022-11-25T20:37:57.990Z,100.00
2022-11-25T20:40:32.979Z,100.00
2022-11-25T20:43:00.997Z,100.00
2022-11-25T20:45:28.962Z,100.00
2022-11-25T20:47:57.052Z,100.00
2022-11-25T20:50:25.016Z,100.00
2022-11-25T20:52:52.982Z,100.00
2022-11-25T20:55:22.262Z,100.00
2022-11-25T20:57:51.894Z,100.00
2022-11-25T21:00:21.048Z,100.00
2022-11-25T21:02:49.112Z,100.00
2022-11-25T21:05:17.965Z,100.00
2022-11-25T21:07:46.093Z,100.00
2022-11-25T21:10:23.069Z,100.00
2022-11-25T21:12:52.536Z,100.00
2022-11-25T21:15:21.720Z,100.00
2022-11-25T21:17:49.723Z,100.00
2022-11-25T21:20:18.173Z,100.00
2022-11-25T21:22:47.272Z,100.00
2022-11-25T21:25:16.990Z,100.00
2022-11-25T21:27:45.189Z,100.00
2022-11-25T21:30:21.351Z,100.00
2022-11-25T21:32:49.341Z,100.00
2022-11-25T21:35:17.347Z,100.00
2022-11-25T21:37:45.345Z,100.00
2022-11-25T21:40:32.376Z,100.00
2022-11-25T21:43:00.376Z,100.00
2022-11-25T21:45:29.727Z,100.00
2022-11-25T21:47:57.761Z,100.00
2022-11-25T21:50:29.287Z,100.00
2022-11-25T21:52:57.367Z,100.00
2022-11-25T21:55:25.360Z,100.00
2022-11-25T21:57:53.267Z,100.00
2022-11-25T22:00:23.894Z,100.00
2022-11-25T22:02:53.405Z,100.00
2022-11-25T22:05:22.255Z,100.00
2022-11-25T22:07:50.328Z,100.00
2022-11-25T22:10:18.675Z,100.00
2022-11-25T22:12:47.284Z,100.00
2022-11-25T22:15:16.960Z,100.00
2022-11-25T22:17:45.118Z,100.00
2022-11-25T22:20:24.901Z,100.00
2022-11-25T22:22:52.814Z,100.00
2022-11-25T22:25:20.774Z,100.00
2022-11-25T22:27:48.781Z,100.00
2022-11-25T22:30:17.696Z,100.00
2022-11-25T22:32:45.853Z,100.00
2022-11-25T22:35:18.306Z,100.00
2022-11-25T22:37:53.501Z,100.00
2022-11-25T22:40:22.875Z,100.00
2022-11-25T22:42:51.452Z,100.00
2022-11-25T22:45:22.322Z,100.00
2022-11-25T22:47:50.330Z,100.00
2022-11-25T22:50:21.811Z,100.00
2022-11-25T22:52:51.198Z,100.00
2022-11-25T22:55:20.926Z,100.00
2022-11-25T22:57:49.098Z,100.00
2022-11-25T23:00:21.759Z,100.00
2022-11-25T23:02:49.799Z,100.00
2022-11-25T23:05:20.056Z,100.00
2022-11-25T23:07:48.471Z,100.00
2022-11-25T23:10:19.867Z,100.00
2022-11-25T23:12:47.894Z,100.00
2022-11-25T23:15:16.270Z,100.00
2022-11-25T23:17:49.600Z,100.00
2022-11-25T23:20:21.983Z,100.00
2022-11-25T23:22:49.963Z,100.00
2022-11-25T23:25:21.007Z,100.00
2022-11-25T23:27:49.094Z,100.00
2022-11-25T23:30:17.622Z,100.00
2022-11-25T23:32:45.728Z,100.00
2022-11-25T23:35:17.514Z,100.00
2022-11-25T23:37:45.522Z,100.00
2022-11-25T23:40:20.915Z,100.00
2022-11-25T23:42:48.919Z,100.00
2022-11-25T23:45:18.281Z,100.00
2022-11-25T23:47:46.671Z,100.00
2022-11-25T23:50:22.548Z,100.00
2022-11-25T23:52:50.571Z,100.00
2022-11-25T23:55:23.340Z,100.00
2022-11-25T23:57:51.272Z,100.00
